Hope, North Dakota
Current Conditions -  °F | °C
As of 5:15 AM on Saturday 25 Oct 2014 (Local Time) from KBAC Reporting Station
Clear Clear  
Wind Chill: 34°   Ceiling: Unl
Heat Index: 41°   Visibility: 10mi
Dew Point: 32°   Wind: 12mph
Humidity: 70%   Direction: 300°WNW
Pressure: 30.05"   Gusts: NA
Location:  47.32°N, 97.72°W
Report Text: KBAC 251015Z AUTO 30010KT 10SM CLR 05/00 A3005 RMK AO2
Loading
Personal Weather Stations






























Interactive Weather Map
Tropical Storm Tracking
New forecast layout! Learn more

10-Day Weather Forecast

Advertisements
Track Severe Weather on mobile